Time;durP1;ratioP1;P1;durP2;ratioP2;P2;SDS_P1;SDS_P2;PMS_P1;PMS_P2;Temp;Humidity;BMP_temperature;BMP_pressure;BME280_temperature;BME280_humidity;BME280_pressure;Samples;Min_cycle;Max_cycle;Signal;HPM_P1;HPM_P2
2024/02/13 00:00:20;;;;;;;14.48;6.40;;;6.20;99.90;;;6.34;74.02;100333.22;5018826;28;20046;-81
2024/02/13 00:02:49;;;;;;;15.48;6.28;;;6.20;99.90;;;6.31;74.37;100336.25;4983968;28;20045;-81
2024/02/13 00:05:17;;;;;;;15.75;6.35;;;6.10;99.90;;;6.33;74.38;100337.69;5001124;28;20073;-81
2024/02/13 00:07:44;;;;;;;14.00;6.30;;;6.20;99.90;;;6.32;74.28;100345.84;4984793;28;20498;-81
2024/02/13 00:10:13;;;;;;;15.82;6.72;;;6.10;99.90;;;6.30;74.79;100346.03;5001223;28;20050;-81
2024/02/13 00:12:41;;;;;;;16.02;6.80;;;6.10;99.90;;;6.28;74.14;100342.72;5009568;28;20046;-81
2024/02/13 00:15:14;;;;;;;20.25;6.75;;;6.10;99.90;;;6.28;74.88;100344.56;5020402;28;20045;-81
2024/02/13 00:17:44;;;;;;;12.98;6.80;;;6.10;99.90;;;6.28;74.81;100344.56;5038592;28;20049;-81
2024/02/13 00:20:14;;;;;;;15.83;7.30;;;6.10;99.90;;;6.29;74.89;100341.72;5038390;28;20033;-81
2024/02/13 00:22:41;;;;;;;15.93;6.93;;;6.10;99.90;;;6.30;74.72;100358.44;5012468;28;20054;-81
2024/02/13 00:25:10;;;;;;;14.98;7.38;;;6.10;99.90;;;6.29;74.96;100356.78;5017743;28;20085;-81
2024/02/13 00:27:39;;;;;;;16.70;7.57;;;6.10;99.90;;;6.30;74.92;100351.31;5000374;28;20057;-81
2024/02/13 00:30:09;;;;;;;18.15;7.75;;;6.10;99.90;;;6.30;74.84;100356.63;5018266;28;20112;-80
2024/02/13 00:32:38;;;;;;;18.93;7.87;;;6.10;99.90;;;6.31;75.28;100362.75;5000395;28;20585;-81
2024/02/13 00:35:08;;;;;;;16.00;7.88;;;6.10;99.90;;;6.31;75.31;100366.19;5017927;28;20074;-81
2024/02/13 00:37:36;;;;;;;18.98;8.05;;;6.10;99.90;;;6.29;75.32;100373.50;4984113;28;20108;-81
2024/02/13 00:40:07;;;;;;;19.20;7.93;;;6.10;99.90;;;6.29;75.62;100376.16;5018878;28;20386;-81
2024/02/13 00:42:39;;;;;;;15.85;8.15;;;6.10;99.90;;;6.29;75.19;100376.16;5019899;28;20421;-81
2024/02/13 00:45:11;;;;;;;21.10;8.45;;;6.10;99.90;;;6.30;75.45;100377.00;5003505;28;20095;-81
2024/02/13 00:47:41;;;;;;;18.40;9.27;;;6.10;99.90;;;6.28;75.18;100374.50;5020374;28;20448;-81
2024/02/13 00:50:09;;;;;;;21.83;9.43;;;6.10;99.90;;;6.28;75.34;100381.63;5020096;28;20140;-81
2024/02/13 00:52:40;;;;;;;14.80;8.73;;;6.10;99.90;;;6.26;75.25;100386.31;5037658;28;20073;-81
2024/02/13 00:55:08;;;;;;;20.30;9.43;;;6.10;99.90;;;6.24;74.98;100383.81;5053232;28;20071;-81
2024/02/13 00:57:36;;;;;;;19.23;9.57;;;6.10;99.90;;;6.24;74.91;100385.66;5052328;28;20045;-81
2024/02/13 01:00:10;;;;;;;25.45;9.98;;;6.00;99.90;;;6.22;74.97;100403.56;5037140;28;20045;-81
2024/02/13 01:02:37;;;;;;;18.60;9.98;;;6.00;99.90;;;6.19;75.19;100389.66;5037377;28;20045;-81
2024/02/13 01:05:07;;;;;;;19.38;10.68;;;6.00;99.90;;;6.19;74.77;100387.03;5037148;28;20037;-81
2024/02/13 01:07:35;;;;;;;21.52;10.63;;;6.00;99.90;;;6.18;74.87;100392.50;4986256;28;20080;-81
2024/02/13 01:10:06;;;;;;;21.50;10.55;;;6.00;99.90;;;6.16;74.83;100390.06;5051707;28;20075;-81
2024/02/13 01:12:34;;;;;;;20.85;9.77;;;6.00;99.90;;;6.15;74.84;100390.25;5052804;28;20049;-81
2024/02/13 01:15:01;;;;;;;30.52;10.48;;;6.00;99.90;;;6.14;74.80;100396.53;5018957;28;20049;-81
2024/02/13 01:17:30;;;;;;;24.65;10.43;;;6.00;99.90;;;6.14;74.75;100404.47;5019003;28;20437;-81
2024/02/13 01:19:58;;;;;;;22.73;10.18;;;5.90;99.90;;;6.13;75.00;100405.47;5036799;28;20050;-81
2024/02/13 01:22:26;;;;;;;25.75;10.88;;;5.90;99.90;;;6.12;75.13;100415.25;5036812;28;20045;-81
2024/02/13 01:24:55;;;;;;;19.48;10.60;;;5.90;99.90;;;6.12;74.91;100409.16;5036262;28;20116;-81
2024/02/13 01:27:23;;;;;;;24.10;11.18;;;5.90;99.90;;;6.10;75.05;100411.13;5019084;28;20144;-81
2024/02/13 01:29:51;;;;;;;23.73;12.05;;;5.90;99.90;;;6.08;74.80;100419.28;5037097;28;20087;-81
2024/02/13 01:32:18;;;;;;;21.98;11.00;;;5.90;99.90;;;6.09;74.75;100422.72;5052135;28;20045;-81
2024/02/13 01:34:47;;;;;;;21.38;10.30;;;5.90;99.90;;;6.07;74.75;100428.22;5035907;28;20037;-81
2024/02/13 01:37:15;;;;;;;23.75;10.80;;;6.00;99.90;;;6.06;74.64;100428.41;5017892;28;20100;-81
2024/02/13 01:39:42;;;;;;;19.13;10.73;;;5.90;99.90;;;6.04;74.83;100425.94;5050867;28;20046;-81
2024/02/13 01:42:11;;;;;;;22.05;10.25;;;5.80;99.90;;;6.02;74.73;100427.94;5035427;28;20061;-81
2024/02/13 01:44:38;;;;;;;19.77;10.45;;;5.80;99.90;;;6.03;75.09;100436.72;5001993;28;20072;-81
2024/02/13 01:47:07;;;;;;;22.10;10.73;;;5.80;99.90;;;6.02;74.97;100438.53;5036197;28;20053;-81
2024/02/13 01:49:35;;;;;;;22.05;11.80;;;5.80;99.90;;;6.03;75.07;100444.66;5018024;28;20072;-81
2024/02/13 01:52:05;;;;;;;20.33;11.30;;;5.80;99.90;;;6.01;75.02;100438.72;5036243;28;20107;-81
2024/02/13 01:54:35;;;;;;;25.85;10.75;;;5.80;99.90;;;5.98;74.68;100447.84;5018442;28;20057;-81
2024/02/13 01:57:07;;;;;;;18.02;10.40;;;5.80;99.90;;;5.96;74.64;100438.47;5051278;28;20099;-81
2024/02/13 01:59:38;;;;;;;20.55;10.80;;;5.80;99.90;;;5.96;75.04;100441.91;5018317;28;20049;-81
2024/02/13 02:02:08;;;;;;;22.92;11.07;;;5.80;99.90;;;5.94;74.80;100442.09;5017800;28;20065;-81
2024/02/13 02:04:39;;;;;;;23.70;11.50;;;5.40;99.90;;;5.94;74.79;100443.91;5017696;28;20160;-81
2024/02/13 02:07:09;;;;;;;20.20;11.27;;;5.70;99.90;;;5.91;74.77;100445.09;5017822;28;20147;-80
2024/02/13 02:09:37;;;;;;;20.65;10.60;;;5.70;99.90;;;5.90;74.98;100435.50;5036115;28;20397;-81
2024/02/13 02:12:06;;;;;;;24.23;11.48;;;5.70;99.90;;;5.90;75.01;100439.94;5014413;28;20041;-81
2024/02/13 02:14:39;;;;;;;24.80;11.35;;;5.70;99.90;;;5.90;75.02;100443.44;5017022;28;20493;-81
2024/02/13 02:17:10;;;;;;;20.25;11.13;;;5.70;99.90;;;5.89;74.95;100444.41;4999633;28;20082;-81
2024/02/13 02:19:38;;;;;;;20.92;11.05;;;5.70;99.90;;;5.91;75.23;100449.56;4999101;28;20038;-81
2024/02/13 02:22:07;;;;;;;23.75;12.10;;;5.70;99.90;;;5.90;74.86;100447.88;4998735;28;20042;-81
2024/02/13 02:24:35;;;;;;;22.42;12.10;;;5.70;99.90;;;5.88;75.38;100447.25;4998502;28;20057;-81
2024/02/13 02:27:04;;;;;;;22.70;11.98;;;5.70;99.90;;;5.87;75.24;100450.91;4982563;28;20042;-81
2024/02/13 02:29:32;;;;;;;24.48;11.50;;;5.70;99.90;;;5.86;75.43;100443.97;5016058;28;20072;-81
2024/02/13 02:32:00;;;;;;;19.83;11.82;;;5.70;99.90;;;5.88;75.52;100445.44;5016151;28;20088;-81
2024/02/13 02:34:27;;;;;;;23.02;11.98;;;5.70;99.90;;;5.88;75.78;100458.66;4998611;28;20050;-81
2024/02/13 02:36:55;;;;;;;23.88;12.75;;;5.70;99.90;;;5.90;75.54;100458.47;5013190;28;20050;-81
2024/02/13 02:39:22;;;;;;;22.35;11.93;;;5.80;99.90;;;5.85;75.81;100458.19;5017993;28;20045;-81
2024/02/13 02:41:50;;;;;;;25.17;12.80;;;5.70;99.90;;;5.84;75.91;100454.72;5035658;28;20511;-81
2024/02/13 02:44:19;;;;;;;23.83;12.68;;;5.70;99.90;;;5.86;75.64;100457.22;5018569;28;20053;-81
2024/02/13 02:46:47;;;;;;;26.88;12.35;;;5.70;99.90;;;5.87;75.79;100459.66;5001671;28;20049;-81
2024/02/13 02:49:16;;;;;;;25.90;13.40;;;5.70;99.90;;;5.86;75.52;100468.63;5036420;28;20048;-81
2024/02/13 02:51:46;;;;;;;22.83;12.88;;;5.70;99.90;;;5.87;75.73;100469.44;5017224;28;20136;-81
2024/02/13 02:54:14;;;;;;;24.80;13.05;;;5.70;99.90;;;5.87;75.45;100469.44;5018491;28;20047;-81
2024/02/13 02:56:41;;;;;;;25.65;13.80;;;5.70;99.90;;;5.88;75.48;100465.78;5017543;28;20041;-81
2024/02/13 02:59:09;;;;;;;23.38;12.55;;;5.70;99.90;;;5.86;75.47;100465.16;5050690;28;20128;-81
2024/02/13 03:01:38;;;;;;;25.52;13.05;;;5.70;99.90;;;5.85;75.67;100468.78;5017904;28;20107;-81
2024/02/13 03:04:07;;;;;;;27.95;12.93;;;5.70;99.90;;;5.84;75.23;100475.09;5050487;28;20113;-81
2024/02/13 03:06:34;;;;;;;21.80;13.05;;;5.60;99.90;;;5.80;75.39;100471.16;5035258;28;20048;-81
2024/02/13 03:09:02;;;;;;;24.35;13.25;;;5.60;99.90;;;5.79;75.35;100467.69;5001002;28;20116;-81
2024/02/13 03:11:31;;;;;;;23.80;13.40;;;5.60;99.90;;;5.80;75.12;100476.44;5017887;28;20500;-81
2024/02/13 03:13:59;;;;;;;22.80;13.20;;;5.60;99.90;;;5.79;75.21;100478.25;5035110;28;20045;-81
2024/02/13 03:16:29;;;;;;;20.42;12.35;;;5.60;99.90;;;5.80;75.34;100471.97;5017722;28;20049;-81
2024/02/13 03:18:58;;;;;;;23.20;13.27;;;5.60;99.90;;;5.78;75.70;100484.56;5017688;28;20076;-81
2024/02/13 03:21:26;;;;;;;19.75;12.88;;;5.60;99.90;;;5.79;75.34;100482.75;5034621;28;20166;-81
2024/02/13 03:23:53;;;;;;;24.48;12.85;;;5.60;99.90;;;5.77;75.63;100479.47;5050423;28;20052;-81
2024/02/13 03:26:21;;;;;;;25.73;13.20;;;5.60;99.90;;;5.79;75.93;100472.16;5000494;28;20121;-81
2024/02/13 03:28:48;;;;;;;20.23;12.40;;;5.60;99.90;;;5.63;75.72;100484.53;5035266;28;20084;-81
2024/02/13 03:31:16;;;;;;;23.73;12.38;;;5.50;99.90;;;5.57;76.42;100477.31;5033173;28;20042;-81
2024/02/13 03:33:44;;;;;;;25.20;13.20;;;5.50;99.90;;;5.67;76.79;100479.72;5000701;28;20041;-81
2024/02/13 03:36:16;;;;;;;25.88;13.70;;;5.60;99.90;;;5.69;76.67;100489.09;5051752;28;20444;-81
2024/02/13 03:38:44;;;;;;;27.13;13.05;;;5.60;99.90;;;5.67;76.56;100488.47;5035487;28;20050;-81
2024/02/13 03:41:11;;;;;;;23.70;13.52;;;5.60;99.90;;;5.69;76.73;100483.00;5016770;28;20153;-81
2024/02/13 03:43:43;;;;;;;35.05;14.43;;;5.60;99.90;;;5.67;76.46;100488.47;5035280;28;20109;-81
2024/02/13 03:46:10;;;;;;;23.23;12.98;;;5.60;99.90;;;5.69;77.04;100491.75;5035250;28;20065;-81
2024/02/13 03:48:40;;;;;;;28.42;13.57;;;5.60;99.90;;;5.72;76.61;100476.53;5017825;28;20049;-81
2024/02/13 03:51:07;;;;;;;22.98;13.90;;;5.60;99.90;;;5.72;76.58;100479.19;5001000;28;20041;-81
2024/02/13 03:53:36;;;;;;;30.85;14.85;;;5.60;99.90;;;5.71;77.13;100477.50;5001830;28;20083;-81
2024/02/13 03:56:06;;;;;;;29.25;14.95;;;5.60;99.90;;;5.68;77.20;100474.22;5041696;28;20046;-81
2024/02/13 03:58:34;;;;;;;31.20;16.25;;;5.60;99.90;;;5.68;77.13;100482.16;4997576;28;20049;-81
2024/02/13 04:01:02;;;;;;;32.38;16.35;;;5.60;99.90;;;5.59;77.09;100485.06;4966847;28;20079;-81
2024/02/13 04:03:29;;;;;;;28.65;15.35;;;5.50;99.90;;;5.52;77.86;100481.50;5016741;28;20103;-81
2024/02/13 04:05:57;;;;;;;27.60;14.90;;;5.50;99.90;;;5.61;77.75;100485.69;5038910;28;20497;-81
2024/02/13 04:08:27;;;;;;;26.38;15.80;;;5.60;99.90;;;5.68;77.72;100476.88;5053729;28;20057;-81
2024/02/13 04:10:56;;;;;;;27.80;16.52;;;5.60;99.90;;;5.68;77.75;100492.75;5021463;28;20038;-81
2024/02/13 04:13:25;;;;;;;29.30;15.80;;;5.60;99.90;;;5.70;77.73;100495.22;5038016;28;20073;-81
2024/02/13 04:15:52;;;;;;;32.47;16.30;;;5.60;99.90;;;5.72;77.68;100487.94;4995762;28;20049;-81
2024/02/13 04:18:20;;;;;;;28.52;16.38;;;5.90;99.90;;;5.70;77.56;100481.97;4985245;28;20042;-81
2024/02/13 04:20:47;;;;;;;32.45;16.10;;;5.60;99.90;;;5.65;77.80;100487.81;5000724;28;20044;-81
2024/02/13 04:23:16;;;;;;;28.52;16.58;;;5.50;99.90;;;5.61;77.63;100483.06;5018552;28;20093;-81
2024/02/13 04:25:44;;;;;;;32.65;16.10;;;5.60;99.90;;;5.58;77.90;100491.38;4968617;28;20076;-81
2024/02/13 04:28:13;;;;;;;31.75;16.63;;;5.50;99.90;;;5.54;78.12;100501.47;5000683;28;20048;-81
2024/02/13 04:30:41;;;;;;;27.90;15.50;;;5.50;99.90;;;5.55;78.36;100495.19;5000412;28;20132;-81
2024/02/13 04:33:09;;;;;;;30.83;16.60;;;5.50;99.90;;;5.63;78.17;100502.22;5000493;28;20128;-81
2024/02/13 04:35:37;;;;;;;33.83;16.58;;;5.60;99.90;;;5.64;77.69;100501.22;5019639;28;20038;-81
2024/02/13 04:38:05;;;;;;;29.23;16.77;;;5.60;99.90;;;5.62;77.90;100506.69;5018262;28;20391;-81
2024/02/13 04:40:33;;;;;;;31.48;16.05;;;5.60;99.90;;;5.57;77.78;100503.78;5017879;28;20046;-81
2024/02/13 04:43:01;;;;;;;27.40;15.73;;;5.50;99.90;;;5.58;78.16;100512.53;5017869;28;20450;-81
2024/02/13 04:45:30;;;;;;;33.00;16.38;;;5.50;99.90;;;5.57;78.35;100501.13;5000413;28;20038;-81
2024/02/13 04:47:58;;;;;;;31.80;15.88;;;5.50;99.90;;;5.48;78.31;100502.19;5018149;28;20100;-81
2024/02/13 04:50:27;;;;;;;28.00;15.05;;;5.50;99.90;;;5.52;78.39;100497.38;4985210;28;20455;-81
2024/02/13 04:52:55;;;;;;;26.40;14.40;;;5.50;99.90;;;5.59;78.36;100496.47;5017453;28;20046;-81
2024/02/13 04:55:24;;;;;;;29.27;14.90;;;5.50;99.90;;;5.54;78.17;100500.66;5000211;28;20429;-80
2024/02/13 04:57:52;;;;;;;26.83;14.85;;;5.50;99.90;;;5.52;78.08;100495.53;5000990;28;20046;-81
2024/02/13 05:00:24;;;;;;;28.80;15.90;;;5.50;99.90;;;5.50;77.91;100502.81;5032976;28;20133;-81
2024/02/13 05:03:03;;;;;;;28.58;14.57;;;5.50;99.90;;;5.48;78.24;100502.19;5028881;28;20045;-81
2024/02/13 05:08:16;;;;;;;28.30;14.65;;;5.40;99.90;;;5.54;78.32;100505.94;5037454;28;20123;-81
2024/02/13 05:10:44;;;;;;;28.17;14.23;;;5.50;99.90;;;5.54;77.97;100514.69;5037608;28;20042;-81
2024/02/13 05:13:14;;;;;;;26.75;13.50;;;5.40;99.90;;;5.49;78.19;100509.13;5036297;28;20045;-81
2024/02/13 05:15:42;;;;;;;31.05;13.88;;;5.40;99.90;;;5.51;77.71;100509.75;5019359;28;20049;-81
2024/02/13 05:18:11;;;;;;;25.02;13.68;;;5.40;99.90;;;5.37;78.66;100523.75;5019007;28;20571;-81
2024/02/13 05:20:38;;;;;;;27.10;14.00;;;5.30;99.90;;;5.40;78.72;100518.09;4986925;28;20067;-81
2024/02/13 05:23:10;;;;;;;29.90;13.85;;;5.60;99.90;;;5.30;78.48;100523.63;5019145;28;20045;-81
2024/02/13 05:25:39;;;;;;;23.90;12.48;;;5.30;99.90;;;5.32;78.74;100520.78;5019575;28;20072;-85
2024/02/13 05:28:09;;;;;;;28.00;13.70;;;5.30;99.90;;;5.30;78.52;100520.16;5036724;28;20053;-84
2024/02/13 05:30:36;;;;;;;27.65;13.95;;;5.30;99.90;;;5.34;78.91;100516.16;4970807;28;20045;-85
2024/02/13 05:33:05;;;;;;;24.67;12.05;;;5.30;99.90;;;5.39;79.07;100519.09;5036979;28;20096;-84
2024/02/13 05:35:37;;;;;;;22.50;11.68;;;5.30;99.90;;;5.39;78.75;100512.00;5037752;28;20060;-84
2024/02/13 05:38:09;;;;;;;24.20;12.18;;;5.40;99.90;;;5.41;78.86;100525.03;5037849;28;20052;-84
2024/02/13 05:40:39;;;;;;;21.58;11.98;;;5.40;99.90;;;5.41;78.39;100523.22;5019921;28;20141;-84
2024/02/13 05:43:08;;;;;;;22.33;11.35;;;5.40;99.90;;;5.42;78.55;100529.34;5002849;28;20034;-84
2024/02/13 05:45:36;;;;;;;26.33;12.55;;;5.40;99.90;;;5.45;78.51;100523.69;5019902;28;20056;-84
2024/02/13 05:48:04;;;;;;;21.67;11.60;;;5.40;99.90;;;5.47;78.19;100524.34;5038464;28;20061;-84
2024/02/13 05:50:31;;;;;;;24.60;11.65;;;5.40;99.90;;;5.45;78.31;100523.69;5020028;28;20574;-84
2024/02/13 05:53:01;;;;;;;20.40;10.93;;;5.40;99.90;;;5.44;78.56;100527.34;5037866;28;20041;-84
2024/02/13 05:55:29;;;;;;;27.33;11.27;;;5.40;99.90;;;5.38;78.55;100522.75;5038066;28;20529;-84
2024/02/13 05:57:58;;;;;;;21.05;10.18;;;5.30;99.90;;;5.39;78.42;100527.03;5020206;28;20045;-84
2024/02/13 06:00:26;;;;;;;25.13;11.40;;;5.30;99.90;;;5.25;78.53;100533.91;5019519;28;20052;-84
2024/02/13 06:02:54;;;;;;;28.15;11.35;;;5.30;99.90;;;5.31;79.00;100537.66;5037673;28;20041;-84
2024/02/13 06:05:23;;;;;;;22.92;10.15;;;5.30;99.90;;;5.28;78.72;100532.75;5020113;28;20041;-84
2024/02/13 06:07:51;;;;;;;21.70;10.98;;;5.30;99.90;;;5.34;78.75;100534.69;5037420;28;20076;-84
2024/02/13 06:10:21;;;;;;;26.10;11.02;;;5.30;99.90;;;5.35;79.10;100528.38;5018569;28;20037;-84
2024/02/13 06:12:49;;;;;;;21.38;10.02;;;5.30;99.90;;;5.34;78.49;100526.75;5036637;28;20041;-86
2024/02/13 06:15:17;;;;;;;17.15;9.40;;;5.30;99.90;;;5.31;78.83;100532.38;5019033;28;20139;-81
2024/02/13 06:17:46;;;;;;;24.45;9.93;;;5.10;99.90;;;5.30;78.97;100528.91;5018152;28;20571;-84
2024/02/13 06:20:14;;;;;;;20.45;9.45;;;5.20;99.90;;;5.35;78.79;100538.97;5034757;28;20041;-84
2024/02/13 06:22:42;;;;;;;22.50;10.02;;;5.30;99.90;;;5.38;78.79;100535.97;5000510;28;20045;-84
2024/02/13 06:25:12;;;;;;;23.30;10.52;;;5.30;99.90;;;5.40;78.65;100533.97;4985819;28;20115;-84
2024/02/13 06:27:41;;;;;;;17.38;9.45;;;5.30;99.90;;;5.37;78.79;100543.09;5002863;28;20054;-84
2024/02/13 06:30:10;;;;;;;18.25;9.65;;;5.40;99.90;;;5.33;78.60;100546.25;5036403;28;20103;-84
2024/02/13 06:32:38;;;;;;;20.90;9.75;;;5.30;99.90;;;5.30;78.61;100536.84;5002673;28;20049;-84
2024/02/13 06:35:06;;;;;;;18.50;9.43;;;5.20;99.90;;;5.22;78.88;100536.06;5018189;28;20045;-84
2024/02/13 06:37:34;;;;;;;22.73;10.25;;;5.20;99.90;;;5.26;78.94;100547.94;4985889;28;20103;-84
2024/02/13 06:40:01;;;;;;;21.77;10.35;;;5.20;99.90;;;5.12;79.17;100546.88;5001229;28;20531;-84
2024/02/13 06:42:31;;;;;;;19.60;10.00;;;5.20;99.90;;;5.09;79.46;100542.75;5035369;28;20045;-84
2024/02/13 06:45:00;;;;;;;20.52;9.90;;;5.20;99.90;;;5.05;79.79;100551.22;4986086;28;20049;-82
2024/02/13 06:47:28;;;;;;;23.83;10.95;;;5.20;99.90;;;5.13;80.03;100554.63;5036953;28;20071;-82
2024/02/13 06:49:55;;;;;;;23.58;10.48;;;5.20;99.90;;;5.18;79.71;100554.13;4999104;28;20046;-83
2024/02/13 06:52:22;;;;;;;20.67;9.65;;;5.40;99.90;;;5.24;79.52;100560.53;4982918;28;20512;-82
2024/02/13 06:54:50;;;;;;;19.55;9.48;;;5.30;99.90;;;5.30;79.39;100565.94;4998873;28;20099;-82
2024/02/13 06:57:18;;;;;;;21.55;9.73;;;5.30;99.90;;;5.25;79.26;100565.63;5016534;28;20050;-82
2024/02/13 06:59:45;;;;;;;22.73;9.82;;;5.30;99.90;;;5.29;79.33;100561.66;4982174;28;20489;-81
2024/02/13 07:02:14;;;;;;;21.50;9.25;;;5.30;99.90;;;5.34;79.35;100561.13;5035653;28;20108;-82
2024/02/13 07:04:45;;;;;;;18.33;9.35;;;5.30;99.90;;;5.36;79.32;100567.88;5018716;28;20057;-82
2024/02/13 07:07:12;;;;;;;20.23;9.43;;;5.40;99.90;;;5.40;79.56;100571.00;5034823;28;20053;-82
2024/02/13 07:09:40;;;;;;;20.25;9.38;;;5.40;99.90;;;5.41;79.71;100576.09;5017679;28;20060;-82
2024/02/13 07:12:08;;;;;;;19.92;9.55;;;5.40;99.90;;;5.44;79.35;100574.94;5035273;28;20558;-82
2024/02/13 07:14:35;;;;;;;20.85;9.38;;;5.40;99.90;;;5.51;79.61;100575.06;5017745;28;20057;-82
2024/02/13 07:17:03;;;;;;;23.83;9.82;;;5.50;99.90;;;5.50;79.21;100581.34;5017722;28;20125;-82
2024/02/13 07:19:32;;;;;;;18.10;8.98;;;5.50;99.90;;;5.35;79.33;100581.28;5035572;28;20501;-82
2024/02/13 07:22:00;;;;;;;19.25;8.65;;;5.40;99.90;;;5.46;79.49;100590.63;5016669;28;20132;-82
2024/02/13 07:24:27;;;;;;;17.55;8.93;;;5.50;99.90;;;5.44;79.31;100601.41;5018385;28;20053;-82
2024/02/13 07:26:55;;;;;;;26.30;8.82;;;5.50;99.90;;;5.40;79.50;100594.81;5017927;28;20060;-82
2024/02/13 07:29:23;;;;;;;17.45;8.63;;;5.40;99.90;;;5.38;79.72;100592.34;5001760;28;20577;-85
2024/02/13 07:31:51;;;;;;;20.10;9.07;;;5.40;99.90;;;5.38;79.58;100600.28;5035285;28;20493;-85
2024/02/13 07:34:20;;;;;;;20.90;9.73;;;5.40;99.90;;;5.45;79.42;100603.03;5033961;28;20584;-88
2024/02/13 07:36:49;;;;;;;13.18;7.63;;;5.50;99.90;;;5.51;79.72;100607.63;5051565;28;20037;-88
2024/02/13 07:39:18;;;;;;;15.32;8.27;;;5.50;99.90;;;5.46;79.61;100603.84;5003108;28;20053;-89
2024/02/13 07:41:46;;;;;;;16.75;8.57;;;5.50;99.90;;;5.53;79.57;100613.56;5018691;28;20045;-88
2024/02/13 07:44:13;;;;;;;20.65;8.00;;;5.50;99.90;;;5.51;79.51;100612.91;5002106;28;20045;-88
2024/02/13 07:46:41;;;;;;;16.15;8.85;;;5.60;99.90;;;5.55;79.27;100608.91;5036901;28;20046;-90
2024/02/13 07:49:12;;;;;;;19.75;8.65;;;5.60;99.90;;;5.53;79.08;100615.41;5019578;28;20069;-90
2024/02/13 07:51:39;;;;;;;21.70;11.63;;;5.60;99.90;;;5.45;79.54;100610.97;5019182;28;20095;-91
2024/02/13 07:54:09;;;;;;;18.80;8.48;;;5.60;99.90;;;5.46;79.69;100609.97;5037025;28;20041;-84
2024/02/13 07:56:38;;;;;;;17.27;9.80;;;5.60;99.90;;;5.53;79.51;100615.41;5005303;28;20049;-85
2024/02/13 07:59:09;;;;;;;18.60;8.65;;;5.60;99.90;;;5.46;79.58;100617.06;5020440;28;20107;-84
2024/02/13 08:01:37;;;;;;;18.70;7.80;;;5.60;99.90;;;5.43;79.48;100626.19;5019320;28;20501;-85
2024/02/13 08:04:05;;;;;;;15.88;6.78;;;5.60;99.90;;;5.33;79.37;100629.06;5004568;28;20038;-82
2024/02/13 08:06:34;;;;;;;18.33;6.88;;;5.50;99.90;;;5.39;80.21;100631.00;5021430;28;20046;-83
2024/02/13 08:09:03;;;;;;;15.95;6.75;;;5.50;99.90;;;5.43;79.69;100624.38;5039031;28;20607;-81
2024/02/13 08:11:33;;;;;;;19.13;6.38;;;5.60;99.90;;;5.39;79.89;100627.53;5019959;28;20140;-81
2024/02/13 08:14:00;;;;;;;15.32;6.60;;;5.50;99.90;;;5.49;79.82;100636.06;5020043;28;20065;-81
2024/02/13 08:16:31;;;;;;;16.52;7.07;;;5.60;99.90;;;5.53;79.96;100641.84;5020427;28;20571;-81
2024/02/13 08:19:00;;;;;;;15.05;6.90;;;5.60;99.90;;;5.47;79.92;100651.31;5019850;28;20055;-81
2024/02/13 08:21:27;;;;;;;13.98;6.13;;;5.60;99.90;;;5.46;80.43;100646.16;5053596;28;20053;-81
2024/02/13 08:23:55;;;;;;;17.33;6.40;;;5.60;99.90;;;5.55;80.17;100645.13;5020343;28;20046;-81
2024/02/13 08:26:22;;;;;;;14.98;5.47;;;5.70;99.90;;;5.43;80.20;100644.72;5020264;28;20045;-81
2024/02/13 08:28:51;;;;;;;17.15;5.82;;;5.70;99.90;;;5.49;79.91;100641.38;5037729;28;20037;-80
2024/02/13 08:31:19;;;;;;;12.10;5.88;;;5.70;99.90;;;5.47;80.09;100643.38;5052563;28;20525;-81
2024/02/13 08:33:47;;;;;;;13.95;5.65;;;5.70;99.90;;;5.47;80.19;100642.56;5020659;28;20033;-80
2024/02/13 08:36:14;;;;;;;16.13;5.90;;;5.70;99.90;;;5.51;80.38;100639.34;5020023;28;20483;-81
2024/02/13 08:38:44;;;;;;;13.10;6.35;;;5.80;99.90;;;5.55;80.33;100638.03;5019307;28;20087;-81
2024/02/13 08:41:13;;;;;;;16.95;5.57;;;5.80;99.90;;;5.55;80.46;100638.03;5038346;28;20107;-81
2024/02/13 08:43:41;;;;;;;13.93;5.63;;;5.90;99.90;;;5.56;80.06;100646.78;5004248;28;20087;-81
2024/02/13 08:46:13;;;;;;;13.88;4.82;;;5.90;99.90;;;5.60;80.38;100656.00;5003761;28;20037;-82
2024/02/13 08:48:40;;;;;;;;;;;5.90;99.90;;;5.64;80.66;100647.56;5019414;28;20076;-81
2024/02/13 08:51:08;;;;;;;17.85;5.38;;;6.10;99.90;;;5.60;80.04;100643.59;5037364;28;20007;-81
2024/02/13 08:53:35;;;;;;;19.80;5.55;;;6.00;99.90;;;5.69;80.58;100652.31;5037461;28;20037;-81
2024/02/13 08:56:04;;;;;;;10.32;5.20;;;6.00;99.90;;;5.78;80.49;100653.94;5037427;28;20049;-81
2024/02/13 08:58:31;;;;;;;17.60;5.63;;;6.10;99.90;;;5.86;80.54;100661.00;4987139;28;20054;-82
2024/02/13 09:00:59;;;;;;;11.95;4.97;;;6.10;99.90;;;5.78;79.96;100653.94;5020081;28;20037;-81
2024/02/13 09:03:28;;;;;;;14.57;4.90;;;6.10;99.90;;;5.83;79.92;100653.41;5037614;28;20049;-81
2024/02/13 09:05:57;;;;;;;15.48;4.70;;;6.10;99.90;;;5.82;80.01;100659.69;5019485;28;20449;-81
2024/02/13 09:08:25;;;;;;;17.40;4.70;;;6.20;99.90;;;5.93;80.06;100657.50;5037393;28;20408;-81
2024/02/13 09:10:52;;;;;;;13.52;4.82;;;6.20;99.90;;;6.01;80.23;100667.22;5018913;28;20051;-81
2024/02/13 09:13:20;;;;;;;12.35;4.95;;;6.30;99.90;;;6.02;79.67;100663.56;5002920;28;20072;-81
2024/02/13 09:15:47;;;;;;;13.35;4.60;;;6.30;99.90;;;5.94;79.05;100663.59;5036783;28;20041;-81
2024/02/13 09:18:15;;;;;;;14.00;5.18;;;6.20;99.90;;;5.90;78.91;100664.91;4986311;28;20049;-81
2024/02/13 09:20:44;;;;;;;13.98;4.38;;;6.20;99.90;;;6.00;79.42;100670.00;5019323;28;20128;-81
2024/02/13 09:23:12;;;;;;;9.57;4.40;;;6.30;99.90;;;6.11;79.86;100670.44;5019637;28;20440;-81
2024/02/13 09:25:40;;;;;;;12.43;4.70;;;6.40;99.90;;;6.06;79.11;100670.16;5037298;28;20041;-81
2024/02/13 09:28:09;;;;;;;11.10;4.47;;;6.40;99.90;;;6.13;79.56;100684.31;5037361;28;20038;-81
2024/02/13 09:30:36;;;;;;;11.80;4.90;;;6.40;99.90;;;6.18;79.21;100683.78;5036787;28;20056;-81
2024/02/13 09:33:04;;;;;;;13.65;5.80;;;6.50;99.90;;;6.23;78.70;100677.97;5036979;28;20063;-81
2024/02/13 09:35:32;;;;;;;13.65;5.32;;;6.50;99.90;;;6.25;78.66;100676.78;5019018;28;20042;-81
2024/02/13 09:38:00;;;;;;;16.85;5.28;;;6.60;99.90;;;6.26;78.48;100675.78;5019436;28;20041;-81
2024/02/13 09:40:29;;;;;;;23.48;4.90;;;6.60;99.90;;;6.28;77.80;100687.03;5019254;28;20483;-81
2024/02/13 09:42:56;;;;;;;15.80;5.00;;;6.60;99.90;;;6.35;78.53;100684.50;5036641;28;20417;-81
2024/02/13 09:45:26;;;;;;;13.60;4.97;;;6.70;99.90;;;6.41;78.29;100681.94;5018041;28;20052;-81
2024/02/13 09:47:58;;;;;;;15.63;5.40;;;6.70;99.90;;;6.43;77.68;100679.94;5018218;28;20041;-81
2024/02/13 09:50:29;;;;;;;12.02;4.72;;;6.80;99.90;;;6.45;77.73;100680.59;5018722;28;20394;-81
2024/02/13 09:53:05;;;;;;;11.48;4.32;;;6.80;99.90;;;6.43;77.05;100692.34;5036356;28;20045;-81
2024/02/13 09:55:37;;;;;;;13.75;4.40;;;6.80;99.90;;;6.41;77.10;100683.78;5036489;28;20041;-81
2024/02/13 09:58:05;;;;;;;13.23;4.43;;;6.80;99.90;;;6.52;77.28;100682.53;5018166;28;20088;-81
2024/02/13 10:00:33;;;;;;;12.57;4.40;;;6.80;99.90;;;6.51;77.36;100686.19;5036607;28;20073;-81
2024/02/13 10:03:04;;;;;;;14.77;4.35;;;7.00;99.90;;;6.54;77.00;100680.50;5017853;28;20072;-81
2024/02/13 10:05:32;;;;;;;13.32;4.40;;;6.90;99.90;;;6.63;77.15;100688.19;5002353;28;20521;-81
2024/02/13 10:08:02;;;;;;;13.35;4.43;;;7.00;99.90;;;6.66;77.36;100697.63;5018333;28;20493;-81
2024/02/13 10:10:32;;;;;;;12.07;4.30;;;7.00;99.90;;;6.74;77.65;100696.75;5018610;28;20053;-81
2024/02/13 10:13:00;;;;;;;11.48;4.40;;;7.10;99.90;;;6.80;77.34;100707.44;5017608;28;20042;-81
2024/02/13 10:15:39;;;;;;;15.55;4.90;;;7.10;99.90;;;6.80;75.64;100711.91;5018240;28;20051;-81
2024/02/13 10:18:11;;;;;;;14.52;4.35;;;7.20;99.90;;;6.87;76.11;100715.47;5036304;28;20069;-81
2024/02/13 10:20:41;;;;;;;12.85;3.85;;;7.20;99.90;;;6.91;76.24;100717.59;5036149;28;20103;-81
2024/02/13 10:23:15;;;;;;;13.27;4.53;;;7.30;99.90;;;7.02;75.91;100724.28;5018345;28;20045;-81